Luana, Iowa
Current Conditions -  °F | °C
As of 10:15 AM on Saturday 25 Oct 2014 (Local Time) from KPDC Reporting Station
Clear Clear  
Wind Chill: 59°   Ceiling: Unl
Heat Index: 59°   Visibility: 10mi
Dew Point: 41°   Wind: 9mph
Humidity: 52%   Direction: 300°WNW
Pressure: 30.03"   Gusts: NA
Location:  43.06°N, 91.45°W
Report Text: KPDC 251515Z AUTO 30008KT 10SM CLR 15/05 A3003 RMK AO2 T01480051
Loading
Personal Weather Stations






























Interactive Weather Map
Tropical Storm Tracking
New forecast layout! Learn more

10-Day Weather Forecast

Advertisements
Track Severe Weather on mobile